Time;durP1;ratioP1;P1;durP2;ratioP2;P2;SDS_P1;SDS_P2;PMS_P1;PMS_P2;Temp;Humidity;BMP_temperature;BMP_pressure;BME280_temperature;BME280_humidity;BME280_pressure;Samples;Min_cycle;Max_cycle;Signal;HPM_P1;HPM_P2
2021/12/21 00:02:14;;;;;;;18.87;12.07;;;;;;;;;;4999104;28;20199;-83
2021/12/21 00:04:41;;;;;;;15.13;11.00;;;;;;;;;;5017869;28;20227;-84
2021/12/21 00:07:09;;;;;;;16.77;10.80;;;;;;;;;;5018276;28;20230;-82
2021/12/21 00:09:36;;;;;;;16.07;10.53;;;;;;;;;;5018640;28;20233;-83
2021/12/21 00:12:03;;;;;;;18.00;10.30;;;;;;;;;;5017852;28;20206;-82
2021/12/21 00:14:41;;;;;;;16.63;10.63;;;;;;;;;;5017691;28;20258;-82
2021/12/21 00:17:16;;;;;;;15.53;9.60;;;;;;;;;;5017533;28;20285;-81
2021/12/21 00:20:09;;;;;;;14.90;9.60;;;;;;;;;;5015971;28;20226;-84
2021/12/21 00:23:16;;;;;;;15.70;9.60;;;;;;;;;;5014660;28;20290;-84
2021/12/21 00:25:38;;;;;;;13.93;9.63;;;;;;;;;;5014482;28;20225;-82
2021/12/21 00:28:06;;;;;;;17.43;10.83;;;;;;;;;;4997881;28;20207;-82
2021/12/21 00:30:34;;;;;;;15.87;9.60;;;;;;;;;;5011087;28;20318;-84
2021/12/21 00:33:02;;;;;;;17.63;10.90;;;;;;;;;;5001428;28;20237;-82
2021/12/21 00:35:29;;;;;;;14.80;9.93;;;;;;;;;;5017295;28;20202;-84
2021/12/21 00:37:57;;;;;;;18.33;10.70;;;;;;;;;;5017227;28;20294;-81
2021/12/21 00:40:24;;;;;;;17.37;10.17;;;;;;;;;;5017020;28;20231;-82
2021/12/21 00:42:51;;;;;;;13.17;9.30;;;;;;;;;;5017202;28;20293;-82
2021/12/21 00:45:18;;;;;;;15.30;8.87;;;;;;;;;;5014507;28;20234;-82
2021/12/21 00:47:49;;;;;;;14.40;9.10;;;;;;;;;;5012741;28;20230;-82
2021/12/21 00:50:17;;;;;;;14.47;9.03;;;;;;;;;;5008262;28;20322;-82
2021/12/21 00:52:45;;;;;;;15.17;9.27;;;;;;;;;;5012458;28;20205;-82
2021/12/21 00:55:13;;;;;;;14.67;9.90;;;;;;;;;;5011791;28;20226;-82
2021/12/21 00:57:40;;;;;;;15.33;9.70;;;;;;;;;;5015548;28;20233;-82
2021/12/21 01:00:09;;;;;;;13.13;9.23;;;;;;;;;;5006355;28;20249;-82
2021/12/21 01:02:36;;;;;;;15.20;9.57;;;;;;;;;;5016697;28;20203;-82
2021/12/21 01:05:09;;;;;;;16.70;10.10;;;;;;;;;;5014531;28;20222;-84
2021/12/21 01:07:41;;;;;;;14.17;9.87;;;;;;;;;;5003418;28;20303;-82
2021/12/21 01:10:46;;;;;;;14.27;9.87;;;;;;;;;;5006616;28;20223;-82
2021/12/21 01:13:31;;;;;;;13.77;9.33;;;;;;;;;;5002538;28;20211;-82
2021/12/21 01:16:23;;;;;;;14.30;9.20;;;;;;;;;;5004603;28;20215;-82
2021/12/21 01:19:03;;;;;;;14.63;9.50;;;;;;;;;;5020040;28;20202;-83
2021/12/21 01:21:36;;;;;;;14.77;9.67;;;;;;;;;;5000424;28;20278;-82
2021/12/21 01:24:17;;;;;;;17.67;9.50;;;;;;;;;;5016470;28;20203;-82
2021/12/21 01:26:57;;;;;;;15.20;9.20;;;;;;;;;;5008924;28;20207;-81
2021/12/21 01:29:32;;;;;;;14.33;9.80;;;;;;;;;;5007836;28;20702;-83
2021/12/21 01:32:06;;;;;;;13.80;8.97;;;;;;;;;;5006505;28;20266;-82
2021/12/21 01:34:46;;;;;;;16.73;9.37;;;;;;;;;;5016936;28;20225;-82
2021/12/21 01:37:22;;;;;;;12.63;9.23;;;;;;;;;;5014122;28;20294;-80
2021/12/21 01:40:00;;;;;;;15.23;9.73;;;;;;;;;;4998609;28;20265;-82
2021/12/21 01:42:51;;;;;;;12.50;8.33;;;;;;;;;;4996745;28;20269;-83
2021/12/21 01:50:51;;;;;;;12.00;7.70;;;;;;;;;;5022234;28;20291;-83
2021/12/21 01:53:19;;;;;;;12.10;7.47;;;;;;;;;;5013576;28;20269;-82
2021/12/21 01:55:47;;;;;;;11.17;7.60;;;;;;;;;;5021640;28;20223;-82
2021/12/21 01:58:14;;;;;;;11.97;8.00;;;;;;;;;;5018580;28;20229;-81
2021/12/21 02:00:41;;;;;;;13.87;7.60;;;;;;;;;;5023298;28;20291;-84
2021/12/21 02:03:09;;;;;;;15.40;7.70;;;;;;;;;;5020850;28;20271;-80
2021/12/21 02:05:37;;;;;;;12.17;7.20;;;;;;;;;;5011436;28;20290;-81
2021/12/21 02:08:04;;;;;;;12.10;7.40;;;;;;;;;;5016854;28;20195;-84
2021/12/21 02:10:33;;;;;;;13.77;7.47;;;;;;;;;;5018111;28;20219;-83
2021/12/21 02:13:01;;;;;;;10.73;6.50;;;;;;;;;;5017159;28;20190;-82
2021/12/21 02:15:28;;;;;;;11.40;7.30;;;;;;;;;;5020938;28;20196;-83
2021/12/21 02:20:46;;;;;;;11.00;7.40;;;;;;;;;;5007082;28;20269;-82
2021/12/21 02:23:18;;;;;;;11.40;7.13;;;;;;;;;;5023048;28;20206;-82
2021/12/21 02:31:20;;;;;;;12.90;6.70;;;;;;;;;;5013735;28;20236;-83
2021/12/21 02:33:48;;;;;;;8.63;6.33;;;;;;;;;;5023371;28;20229;-81
2021/12/21 02:36:17;;;;;;;11.40;7.07;;;;;;;;;;5004374;28;20274;-82
2021/12/21 02:38:44;;;;;;;12.03;6.87;;;;;;;;;;5018452;28;20211;-82
2021/12/21 02:41:11;;;;;;;9.70;6.63;;;;;;;;;;5017803;28;20238;-82
2021/12/21 02:43:38;;;;;;;9.67;6.60;;;;;;;;;;5013603;28;20272;-83
2021/12/21 02:46:07;;;;;;;11.17;6.47;;;;;;;;;;5017509;28;20254;-82
2021/12/21 02:48:34;;;;;;;8.83;6.40;;;;;;;;;;5016220;28;20210;-83
2021/12/21 02:51:02;;;;;;;9.37;6.63;;;;;;;;;;5009572;28;20234;-82
2021/12/21 02:53:30;;;;;;;8.53;6.50;;;;;;;;;;5021976;28;20210;-82
2021/12/21 02:55:58;;;;;;;13.27;6.93;;;;;;;;;;5018508;28;20281;-82
2021/12/21 02:58:25;;;;;;;10.97;7.00;;;;;;;;;;5012560;28;20266;-84
2021/12/21 03:00:53;;;;;;;8.47;5.97;;;;;;;;;;5029281;28;20223;-83
2021/12/21 03:03:20;;;;;;;12.73;7.47;;;;;;;;;;5014789;28;20234;-82
2021/12/21 03:05:51;;;;;;;10.47;7.17;;;;;;;;;;5018997;28;20282;-83
2021/12/21 03:08:22;;;;;;;11.97;6.67;;;;;;;;;;5019888;28;20282;-83
2021/12/21 03:14:04;;;;;;;10.07;6.50;;;;;;;;;;5009819;28;20203;-82
2021/12/21 03:16:35;;;;;;;11.50;6.80;;;;;;;;;;5011749;28;20206;-83
2021/12/21 03:19:02;;;;;;;8.20;6.17;;;;;;;;;;5022532;28;20233;-82
2021/12/21 03:21:29;;;;;;;10.00;6.53;;;;;;;;;;5018364;28;20225;-81
2021/12/21 03:23:57;;;;;;;9.63;6.97;;;;;;;;;;5018514;28;20293;-82
2021/12/21 03:26:26;;;;;;;11.40;6.50;;;;;;;;;;5014471;28;20253;-82
2021/12/21 03:28:54;;;;;;;10.33;6.80;;;;;;;;;;5003632;28;20294;-82
2021/12/21 03:31:21;;;;;;;9.43;6.57;;;;;;;;;;5005218;28;20257;-82
2021/12/21 03:33:49;;;;;;;11.87;6.97;;;;;;;;;;5011137;28;20230;-82
2021/12/21 03:36:17;;;;;;;9.30;5.93;;;;;;;;;;5013412;28;20333;-83
2021/12/21 03:38:49;;;;;;;9.50;6.47;;;;;;;;;;5015729;28;20727;-83
2021/12/21 03:41:17;;;;;;;10.93;6.13;;;;;;;;;;5009907;28;20230;-82
2021/12/21 03:43:46;;;;;;;10.33;6.30;;;;;;;;;;5011029;28;20214;-83
2021/12/21 03:46:15;;;;;;;15.03;7.33;;;;;;;;;;5014363;28;20309;-84
2021/12/21 03:48:45;;;;;;;10.00;6.40;;;;;;;;;;5011523;28;20217;-81
2021/12/21 03:51:12;;;;;;;13.43;6.37;;;;;;;;;;5016459;28;20222;-83
2021/12/21 03:53:39;;;;;;;10.97;6.33;;;;;;;;;;5019233;28;20292;-84
2021/12/21 03:56:30;;;;;;;11.00;6.37;;;;;;;;;;5015430;28;20263;-83
2021/12/21 03:58:59;;;;;;;10.27;6.47;;;;;;;;;;5003902;28;20289;-83
2021/12/21 04:01:26;;;;;;;8.47;6.33;;;;;;;;;;5001606;28;20227;-83
2021/12/21 04:03:56;;;;;;;11.77;6.97;;;;;;;;;;5002284;28;20211;-82
2021/12/21 04:06:23;;;;;;;11.50;7.03;;;;;;;;;;5001339;28;20246;-82
2021/12/21 04:08:50;;;;;;;12.13;6.80;;;;;;;;;;5015405;28;20228;-83
2021/12/21 04:11:18;;;;;;;12.77;7.30;;;;;;;;;;5005912;28;20249;-83
2021/12/21 04:13:45;;;;;;;9.60;6.57;;;;;;;;;;5016877;28;20261;-83
2021/12/21 04:16:14;;;;;;;10.30;6.33;;;;;;;;;;5002864;28;20222;-82
2021/12/21 04:18:41;;;;;;;11.13;6.90;;;;;;;;;;5018495;28;20233;-82
2021/12/21 04:21:11;;;;;;;11.77;6.53;;;;;;;;;;5008435;28;20219;-83
2021/12/21 04:23:39;;;;;;;9.30;6.90;;;;;;;;;;5011100;28;20202;-82
2021/12/21 04:26:09;;;;;;;12.17;6.70;;;;;;;;;;5010030;28;20802;-82
2021/12/21 04:28:37;;;;;;;12.03;6.73;;;;;;;;;;5004511;28;20294;-83
2021/12/21 04:31:05;;;;;;;10.67;6.63;;;;;;;;;;5004672;28;20218;-82
2021/12/21 04:33:34;;;;;;;10.87;6.37;;;;;;;;;;5011733;28;20237;-82
2021/12/21 04:36:02;;;;;;;8.17;5.63;;;;;;;;;;5009399;28;20226;-82
2021/12/21 04:38:34;;;;;;;9.10;6.10;;;;;;;;;;5000933;28;20234;-82
2021/12/21 04:41:07;;;;;;;11.13;5.93;;;;;;;;;;5002136;28;20262;-80
2021/12/21 04:43:34;;;;;;;10.27;6.33;;;;;;;;;;5012942;28;20244;-82
2021/12/21 04:46:01;;;;;;;12.23;6.70;;;;;;;;;;5013901;28;20242;-83
2021/12/21 04:48:29;;;;;;;9.87;6.23;;;;;;;;;;5007526;28;20202;-82
2021/12/21 04:50:58;;;;;;;9.67;6.50;;;;;;;;;;5014644;28;20218;-82
2021/12/21 04:53:25;;;;;;;9.83;6.37;;;;;;;;;;5013131;28;20226;-82
2021/12/21 04:55:53;;;;;;;12.20;6.63;;;;;;;;;;5012410;28;20199;-82
2021/12/21 04:58:20;;;;;;;10.33;6.13;;;;;;;;;;5014810;28;20209;-84
2021/12/21 05:00:48;;;;;;;10.70;6.67;;;;;;;;;;5008671;28;20231;-82
2021/12/21 05:03:15;;;;;;;12.47;6.33;;;;;;;;;;5006168;28;20214;-80
2021/12/21 05:05:43;;;;;;;12.17;6.40;;;;;;;;;;5012423;28;20222;-80
2021/12/21 05:08:19;;;;;;;10.30;6.30;;;;;;;;;;5013050;28;20199;-83
2021/12/21 05:10:48;;;;;;;9.73;6.80;;;;;;;;;;5011675;28;20234;-81
2021/12/21 05:13:17;;;;;;;8.50;6.70;;;;;;;;;;5015858;28;20207;-82
2021/12/21 05:15:44;;;;;;;9.87;6.83;;;;;;;;;;5006054;28;20211;-83
2021/12/21 05:18:12;;;;;;;9.10;6.57;;;;;;;;;;5005619;28;20230;-84
2021/12/21 05:20:40;;;;;;;9.40;6.13;;;;;;;;;;5003095;28;20234;-81
2021/12/21 05:23:07;;;;;;;10.83;6.77;;;;;;;;;;5017166;28;20214;-82
2021/12/21 05:25:37;;;;;;;13.90;6.93;;;;;;;;;;5015379;28;20231;-79
2021/12/21 05:28:07;;;;;;;14.13;7.00;;;;;;;;;;5022230;28;20221;-83
2021/12/21 05:30:35;;;;;;;11.00;6.27;;;;;;;;;;5010112;28;20231;-81
2021/12/21 05:33:03;;;;;;;11.07;6.40;;;;;;;;;;5023248;28;20198;-82
2021/12/21 05:35:31;;;;;;;13.90;6.33;;;;;;;;;;5017625;28;20226;-84
2021/12/21 05:38:02;;;;;;;8.20;6.03;;;;;;;;;;5011829;28;20222;-84
2021/12/21 07:04:43;;;;;;;15.37;6.77;;;;;;;;;;5008612;28;20198;-92
2021/12/21 07:10:11;;;;;;;12.20;7.70;;;;;;;;;;5015643;28;20665;-90
2021/12/21 07:18:39;;;;;;;13.47;7.33;;;;;;;;;;5007847;28;20198;-91
2021/12/21 07:21:11;;;;;;;11.40;7.63;;;;;;;;;;5016174;28;20222;-90
2021/12/21 07:23:49;;;;;;;11.40;6.97;;;;;;;;;;5015782;28;20203;-91
2021/12/21 07:26:21;;;;;;;13.13;7.93;;;;;;;;;;5015402;28;20229;-91
2021/12/21 07:29:07;;;;;;;14.23;7.00;;;;;;;;;;5014289;28;20264;-91
2021/12/21 07:34:27;;;;;;;12.83;7.70;;;;;;;;;;5015270;28;20194;-89
2021/12/21 07:40:08;;;;;;;15.10;7.17;;;;;;;;;;5015904;28;20226;-91
2021/12/21 07:42:36;;;;;;;12.40;8.10;;;;;;;;;;5017206;28;20210;-89
2021/12/21 07:45:05;;;;;;;15.87;7.60;;;;;;;;;;5017686;28;20202;-88
2021/12/21 07:47:41;;;;;;;12.20;7.80;;;;;;;;;;5022999;28;20301;-87
2021/12/21 07:50:13;;;;;;;11.23;7.07;;;;;;;;;;5031451;28;20229;-90
2021/12/21 07:52:41;;;;;;;14.77;7.97;;;;;;;;;;5026469;28;20198;-89
2021/12/21 07:55:11;;;;;;;15.60;8.00;;;;;;;;;;5028386;28;20201;-89
2021/12/21 07:57:39;;;;;;;17.13;8.27;;;;;;;;;;5022453;28;20206;-88
2021/12/21 08:00:07;;;;;;;15.53;7.73;;;;;;;;;;5018856;28;20237;-90
2021/12/21 08:02:34;;;;;;;13.70;7.90;;;;;;;;;;5014525;28;20211;-90
2021/12/21 08:05:06;;;;;;;19.53;7.93;;;;;;;;;;5013280;28;20199;-92
2021/12/21 08:07:48;;;;;;;13.47;8.77;;;;;;;;;;5014859;28;20222;-89
2021/12/21 08:10:26;;;;;;;20.60;10.13;;;;;;;;;;5006176;28;20227;-90
2021/12/21 08:13:04;;;;;;;18.83;8.90;;;;;;;;;;5000966;28;20269;-83
2021/12/21 08:18:31;;;;;;;15.40;8.00;;;;;;;;;;4974645;28;20231;-88
2021/12/21 08:20:58;;;;;;;16.80;8.43;;;;;;;;;;4974518;28;20224;-87
2021/12/21 08:23:28;;;;;;;15.50;8.53;;;;;;;;;;4975839;28;20215;-87
2021/12/21 08:25:58;;;;;;;18.47;8.60;;;;;;;;;;4975602;28;20220;-86
2021/12/21 08:28:25;;;;;;;13.30;8.57;;;;;;;;;;4975780;28;20204;-87
2021/12/21 08:30:53;;;;;;;12.67;8.23;;;;;;;;;;4974763;28;20236;-87
2021/12/21 08:33:21;;;;;;;14.50;8.23;;;;;;;;;;4976160;28;20211;-86
2021/12/21 08:35:49;;;;;;;12.70;8.20;;;;;;;;;;4976284;28;20207;-87
2021/12/21 08:38:22;;;;;;;14.70;7.83;;;;;;;;;;4976147;28;20208;-87
2021/12/21 08:41:09;;;;;;;;;;;;;;;;;;;;;
2021/12/21 08:43:44;;;;;;;14.57;8.63;;;;;;;;;;4976459;28;20207;-87
2021/12/21 08:46:16;;;;;;;18.17;11.20;;;;;;;;;;4981605;28;20219;-85
2021/12/21 08:48:44;;;;;;;13.77;10.27;;;;;;;;;;4975416;28;20266;-86
2021/12/21 08:51:15;;;;;;;15.13;9.50;;;;;;;;;;4975015;28;20227;-87
2021/12/21 08:53:46;;;;;;;13.90;9.00;;;;;;;;;;4976603;28;20640;-85
2021/12/21 08:56:19;;;;;;;14.00;8.60;;;;;;;;;;5005150;28;20252;-81
2021/12/21 08:59:06;;;;;;;15.73;8.97;;;;;;;;;;5013723;28;20210;-83
2021/12/21 09:04:16;;;;;;;15.47;8.53;;;;;;;;;;5012790;28;20237;-83
2021/12/21 09:06:43;;;;;;;14.60;8.87;;;;;;;;;;5014002;28;20216;-82
2021/12/21 09:09:11;;;;;;;12.33;8.83;;;;;;;;;;5017464;28;20214;-82
2021/12/21 09:11:45;;;;;;;13.13;8.43;;;;;;;;;;5016276;28;20222;-82
2021/12/21 09:14:14;;;;;;;14.53;9.23;;;;;;;;;;5017434;28;20197;-83
2021/12/21 09:16:41;;;;;;;12.80;7.57;;;;;;;;;;5018026;28;20225;-84
2021/12/21 09:19:08;;;;;;;12.00;7.63;;;;;;;;;;5015781;28;20250;-84
2021/12/21 09:21:39;;;;;;;14.30;9.47;;;;;;;;;;5015942;28;20244;-83
2021/12/21 09:24:13;;;;;;;15.83;9.13;;;;;;;;;;5017517;28;20256;-83
2021/12/21 09:26:43;;;;;;;11.90;8.07;;;;;;;;;;5017958;28;20225;-82
2021/12/21 09:29:13;;;;;;;13.00;8.50;;;;;;;;;;5011450;28;20229;-81
2021/12/21 09:31:44;;;;;;;11.77;7.93;;;;;;;;;;5017527;28;20301;-84
2021/12/21 09:34:14;;;;;;;14.43;8.27;;;;;;;;;;4998565;28;20203;-83
2021/12/21 09:36:41;;;;;;;12.73;8.37;;;;;;;;;;5014999;28;20205;-83
2021/12/21 09:39:17;;;;;;;11.20;8.03;;;;;;;;;;5021409;28;20286;-83
2021/12/21 09:41:46;;;;;;;9.63;7.87;;;;;;;;;;5033303;28;20226;-83
2021/12/21 09:44:13;;;;;;;11.97;7.93;;;;;;;;;;5027317;28;20211;-83
2021/12/21 09:46:42;;;;;;;12.13;8.10;;;;;;;;;;5016797;28;20230;-83
2021/12/21 09:49:11;;;;;;;11.47;8.20;;;;;;;;;;5016376;28;20206;-84
2021/12/21 09:51:39;;;;;;;9.00;7.53;;;;;;;;;;5006389;28;20297;-84
2021/12/21 09:54:08;;;;;;;11.63;7.93;;;;;;;;;;5016719;28;20237;-84
2021/12/21 09:56:35;;;;;;;14.30;9.67;;;;;;;;;;5016808;28;20205;-83
2021/12/21 09:59:03;;;;;;;10.57;8.13;;;;;;;;;;5016387;28;20198;-84
2021/12/21 10:01:30;;;;;;;13.27;8.40;;;;;;;;;;5016373;28;20235;-84
2021/12/21 10:03:59;;;;;;;11.57;8.00;;;;;;;;;;5017650;28;20264;-84
2021/12/21 10:06:30;;;;;;;11.70;7.73;;;;;;;;;;5016161;28;20280;-86
2021/12/21 10:09:09;;;;;;;9.37;7.40;;;;;;;;;;5015429;28;20206;-82
2021/12/21 10:11:43;;;;;;;12.87;8.40;;;;;;;;;;5015057;28;20222;-84
2021/12/21 10:14:10;;;;;;;12.47;7.90;;;;;;;;;;5016817;28;20191;-83
2021/12/21 10:16:44;;;;;;;12.13;8.03;;;;;;;;;;5018079;28;20207;-82
2021/12/21 10:19:23;;;;;;;11.37;7.90;;;;;;;;;;5016955;28;20207;-85
2021/12/21 10:21:50;;;;;;;11.43;8.20;;;;;;;;;;5014182;28;20234;-82
2021/12/21 10:24:27;;;;;;;10.47;7.53;;;;;;;;;;5019174;28;20202;-86
2021/12/21 10:26:55;;;;;;;10.70;8.40;;;;;;;;;;5016857;28;20308;-84
2021/12/21 10:29:22;;;;;;;14.90;9.83;;;;;;;;;;5016960;28;20203;-84
2021/12/21 10:31:51;;;;;;;13.67;8.00;;;;;;;;;;5015686;28;20226;-84
2021/12/21 10:34:21;;;;;;;11.47;7.67;;;;;;;;;;5015770;28;20210;-85
2021/12/21 10:36:51;;;;;;;13.00;7.80;;;;;;;;;;5015434;28;20230;-87
2021/12/21 10:39:24;;;;;;;10.70;8.30;;;;;;;;;;5015512;28;20233;-84
2021/12/21 10:41:52;;;;;;;9.07;8.00;;;;;;;;;;5017474;28;20284;-85
2021/12/21 10:47:54;;;;;;;9.07;7.47;;;;;;;;;;4997292;28;20225;-85
2021/12/21 10:50:32;;;;;;;;;;;;;;;;;;;;;
2021/12/21 10:53:14;;;;;;;;;;;;;;;;;;;;;
2021/12/21 10:56:07;;;;;;;8.70;7.80;;;;;;;;;;5021634;28;20207;-85
2021/12/21 11:01:46;;;;;;;7.73;6.93;;;;;;;;;;5046533;23;20221;-85
2021/12/21 11:10:09;;;;;;;7.57;6.87;;;;;;;;;;5036379;28;20217;-84
2021/12/21 11:12:57;;;;;;;11.13;7.50;;;;;;;;;;5026030;28;20220;-84
2021/12/21 11:18:31;;;;;;;7.83;6.83;;;;;;;;;;4919426;28;20217;-86
2021/12/21 11:21:02;;;;;;;10.63;6.80;;;;;;;;;;5047523;23;20249;-86
2021/12/21 11:29:38;;;;;;;9.87;7.07;;;;;;;;;;4897709;29;20226;-85
2021/12/21 11:32:34;;;;;;;10.40;6.70;;;;;;;;;;4985267;28;20222;-84
2021/12/21 11:50:39;;;;;;;6.90;6.20;;;;;;;;;;4861303;29;20223;-87
2021/12/21 11:53:12;;;;;;;8.20;6.70;;;;;;;;;;4990403;23;20349;-82
2021/12/21 11:59:01;;;;;;;11.03;6.60;;;;;;;;;;4991933;28;20691;-83
2021/12/21 12:01:33;;;;;;;8.17;6.10;;;;;;;;;;4977138;28;20208;-82
2021/12/21 12:04:37;;;;;;;;;;;;;;;;;;;;;
2021/12/21 12:16:35;;;;;;;;;;;;;;;;;;;;;
2021/12/21 12:24:20;;;;;;;7.30;5.97;;;;;;;;;;5093825;22;20221;-87
2021/12/21 12:26:57;;;;;;;8.23;6.27;;;;;;;;;;5056558;28;20214;-85
2021/12/21 12:29:25;;;;;;;7.00;6.30;;;;;;;;;;5056929;28;20205;-87
2021/12/21 12:31:59;;;;;;;9.27;6.33;;;;;;;;;;5051198;28;20209;-83
2021/12/21 12:34:28;;;;;;;7.47;5.73;;;;;;;;;;5036434;28;20249;-86
2021/12/21 12:37:01;;;;;;;9.23;5.90;;;;;;;;;;5032293;28;20220;-86
2021/12/21 12:39:32;;;;;;;8.90;6.23;;;;;;;;;;5015177;28;20205;-84
2021/12/21 12:42:03;;;;;;;8.13;5.90;;;;;;;;;;5020322;28;20230;-85
2021/12/21 12:44:31;;;;;;;7.53;5.70;;;;;;;;;;5019586;28;20268;-84
2021/12/21 12:47:02;;;;;;;9.67;6.30;;;;;;;;;;5011469;28;20199;-84
2021/12/21 12:49:30;;;;;;;8.77;5.83;;;;;;;;;;5007398;28;20203;-84
2021/12/21 12:52:06;;;;;;;7.90;5.70;;;;;;;;;;5006634;28;20283;-84
2021/12/21 12:54:43;;;;;;;6.63;5.40;;;;;;;;;;5013021;28;20201;-85
2021/12/21 12:57:11;;;;;;;9.13;6.37;;;;;;;;;;5016101;28;20225;-84
2021/12/21 12:59:38;;;;;;;5.97;5.37;;;;;;;;;;5019565;28;20206;-85
2021/12/21 13:02:09;;;;;;;10.37;5.83;;;;;;;;;;5016145;28;20226;-85
2021/12/21 13:04:38;;;;;;;7.13;5.50;;;;;;;;;;5019694;28;20297;-85
2021/12/21 13:07:06;;;;;;;8.80;5.73;;;;;;;;;;5012200;28;20222;-85
2021/12/21 13:09:34;;;;;;;9.00;5.60;;;;;;;;;;5013077;28;20213;-85
2021/12/21 13:12:01;;;;;;;7.33;5.73;;;;;;;;;;5012582;28;20227;-84
2021/12/21 13:14:42;;;;;;;6.53;5.63;;;;;;;;;;5014126;28;20226;-83
2021/12/21 13:17:27;;;;;;;6.83;5.57;;;;;;;;;;5010202;28;20207;-80
2021/12/21 13:22:40;;;;;;;7.17;5.13;;;;;;;;;;5007221;28;20280;-83
2021/12/21 13:25:09;;;;;;;7.57;5.00;;;;;;;;;;5017714;28;20261;-83
2021/12/21 13:27:36;;;;;;;7.20;4.93;;;;;;;;;;5015109;28;20219;-80
2021/12/21 13:30:06;;;;;;;6.13;4.83;;;;;;;;;;5019282;28;20199;-81
2021/12/21 13:32:36;;;;;;;6.57;4.50;;;;;;;;;;5016889;28;20225;-80
2021/12/21 13:35:05;;;;;;;8.37;5.07;;;;;;;;;;5009805;28;20241;-81
2021/12/21 13:37:32;;;;;;;5.50;5.00;;;;;;;;;;5019447;28;20261;-83
2021/12/21 13:40:02;;;;;;;7.33;4.83;;;;;;;;;;5011182;28;20203;-81
2021/12/21 13:42:44;;;;;;;8.80;5.10;;;;;;;;;;5016234;28;20257;-82
2021/12/21 13:45:27;;;;;;;6.10;4.70;;;;;;;;;;5018227;28;20205;-89
2021/12/21 13:48:00;;;;;;;7.13;5.20;;;;;;;;;;5019299;28;20325;-84
2021/12/21 13:50:30;;;;;;;6.43;4.70;;;;;;;;;;5017968;28;20210;-83
2021/12/21 13:53:23;;;;;;;8.10;4.97;;;;;;;;;;5021669;28;20249;-84
2021/12/21 13:55:53;;;;;;;5.17;4.57;;;;;;;;;;5014380;28;20264;-82
2021/12/21 13:58:22;;;;;;;9.67;4.83;;;;;;;;;;5014409;28;20260;-82
2021/12/21 14:00:53;;;;;;;7.13;5.13;;;;;;;;;;5014361;28;20196;-83
2021/12/21 14:03:31;;;;;;;6.97;5.17;;;;;;;;;;5013292;28;20307;-81
2021/12/21 14:06:08;;;;;;;8.73;5.03;;;;;;;;;;5007421;28;20217;-84
2021/12/21 14:08:36;;;;;;;5.13;4.63;;;;;;;;;;5010082;28;20323;-83
2021/12/21 14:11:06;;;;;;;7.13;4.73;;;;;;;;;;5012373;28;20214;-83
2021/12/21 14:13:40;;;;;;;5.97;4.50;;;;;;;;;;5015287;28;20233;-86
2021/12/21 14:16:09;;;;;;;8.27;4.97;;;;;;;;;;5024100;28;20208;-84
2021/12/21 14:18:48;;;;;;;9.90;5.83;;;;;;;;;;5020247;28;20198;-82
2021/12/21 14:21:16;;;;;;;6.03;5.10;;;;;;;;;;5028577;28;20600;-81
2021/12/21 14:23:45;;;;;;;7.23;5.47;;;;;;;;;;5033583;28;20230;-80
2021/12/21 14:26:13;;;;;;;10.20;5.10;;;;;;;;;;5029656;28;20203;-82
2021/12/21 14:28:53;;;;;;;7.23;5.33;;;;;;;;;;5022732;28;20238;-84
2021/12/21 14:31:23;;;;;;;6.97;4.50;;;;;;;;;;5019381;28;20264;-84
2021/12/21 14:36:59;;;;;;;5.97;4.77;;;;;;;;;;5015012;28;20218;-81
2021/12/21 14:52:01;;;;;;;7.43;4.87;;;;;;;;;;4943743;29;20205;-82
2021/12/21 14:57:15;;;;;;;5.93;4.73;;;;;;;;;;4953918;28;20236;-81
2021/12/21 14:59:42;;;;;;;5.43;4.60;;;;;;;;;;4957168;29;20339;-81
2021/12/21 15:02:23;;;;;;;6.50;5.27;;;;;;;;;;4956805;28;20291;-80
2021/12/21 15:04:56;;;;;;;9.70;6.33;;;;;;;;;;4953790;29;20217;-85
2021/12/21 15:07:25;;;;;;;6.50;4.97;;;;;;;;;;4957978;29;20299;-84
2021/12/21 15:09:53;;;;;;;7.47;5.40;;;;;;;;;;4960029;29;20205;-85
2021/12/21 15:12:21;;;;;;;5.40;4.90;;;;;;;;;;4952689;29;20267;-84
2021/12/21 15:14:49;;;;;;;8.03;5.23;;;;;;;;;;4955105;28;20224;-84
2021/12/21 15:17:16;;;;;;;6.77;4.60;;;;;;;;;;4959304;28;20205;-83
2021/12/21 15:19:43;;;;;;;5.80;5.30;;;;;;;;;;4993936;28;20206;-85
2021/12/21 15:22:10;;;;;;;7.10;5.30;;;;;;;;;;5020861;28;20218;-85
2021/12/21 15:24:39;;;;;;;7.37;4.87;;;;;;;;;;5022297;28;20202;-84
2021/12/21 15:27:07;;;;;;;5.30;4.80;;;;;;;;;;5009753;28;20274;-82
2021/12/21 15:29:34;;;;;;;9.43;5.63;;;;;;;;;;5017167;28;20269;-81
2021/12/21 15:32:02;;;;;;;7.40;5.60;;;;;;;;;;5016325;28;20234;-81
2021/12/21 15:34:30;;;;;;;7.80;5.60;;;;;;;;;;5015593;28;20199;-82
2021/12/21 15:36:57;;;;;;;8.60;6.00;;;;;;;;;;5011613;28;20225;-83
2021/12/21 15:39:25;;;;;;;8.57;7.00;;;;;;;;;;5016756;28;20214;-83
2021/12/21 15:41:56;;;;;;;7.27;6.47;;;;;;;;;;5024561;28;20210;-80
2021/12/21 15:44:28;;;;;;;7.37;6.07;;;;;;;;;;5028590;28;20234;-81
2021/12/21 15:46:56;;;;;;;9.23;7.50;;;;;;;;;;5019789;28;20277;-80
2021/12/21 15:49:23;;;;;;;9.87;6.60;;;;;;;;;;5020289;28;20261;-82
2021/12/21 15:51:51;;;;;;;11.17;7.53;;;;;;;;;;5018551;28;20210;-83
2021/12/21 15:54:18;;;;;;;8.03;6.70;;;;;;;;;;5019224;28;20217;-83
2021/12/21 15:56:46;;;;;;;10.00;7.97;;;;;;;;;;5017042;28;20211;-83
2021/12/21 15:59:15;;;;;;;9.70;6.63;;;;;;;;;;5020291;28;20231;-84
2021/12/21 16:01:43;;;;;;;7.70;6.90;;;;;;;;;;5015522;28;20210;-82
2021/12/21 16:04:11;;;;;;;7.37;6.67;;;;;;;;;;5019838;28;20216;-83
2021/12/21 16:06:38;;;;;;;8.33;6.63;;;;;;;;;;5015547;28;20207;-83
2021/12/21 16:09:06;;;;;;;11.30;6.93;;;;;;;;;;5017939;28;20229;-82
2021/12/21 16:11:33;;;;;;;10.80;7.40;;;;;;;;;;5016956;28;20207;-81
2021/12/21 16:14:01;;;;;;;9.03;6.90;;;;;;;;;;5018721;28;20230;-82
2021/12/21 16:16:31;;;;;;;9.23;6.83;;;;;;;;;;5019291;28;20206;-82
2021/12/21 16:18:59;;;;;;;8.70;6.70;;;;;;;;;;5018569;28;20206;-80
2021/12/21 16:21:26;;;;;;;9.70;6.63;;;;;;;;;;5017698;28;20276;-80
2021/12/21 16:23:54;;;;;;;10.27;6.30;;;;;;;;;;5018131;28;20236;-84
2021/12/21 16:26:21;;;;;;;11.23;6.10;;;;;;;;;;5015813;28;20289;-81
2021/12/21 16:28:49;;;;;;;9.43;7.17;;;;;;;;;;5015819;28;20218;-83
2021/12/21 16:31:18;;;;;;;9.00;6.80;;;;;;;;;;5016280;28;20241;-84
2021/12/21 16:33:47;;;;;;;9.97;7.67;;;;;;;;;;5017666;28;20273;-82
2021/12/21 16:36:14;;;;;;;12.73;7.60;;;;;;;;;;5016539;28;20198;-83
2021/12/21 16:38:42;;;;;;;12.30;7.03;;;;;;;;;;5016477;28;20211;-83
2021/12/21 16:41:09;;;;;;;10.47;7.13;;;;;;;;;;5012645;28;20249;-83
2021/12/21 16:43:39;;;;;;;8.13;6.80;;;;;;;;;;5015164;28;20277;-81
2021/12/21 16:46:07;;;;;;;9.20;7.40;;;;;;;;;;5019216;28;20210;-79
2021/12/21 16:48:35;;;;;;;10.43;6.90;;;;;;;;;;5020879;28;20288;-83
2021/12/21 16:51:04;;;;;;;10.20;7.30;;;;;;;;;;5022722;28;20219;-82
2021/12/21 16:53:31;;;;;;;11.47;7.73;;;;;;;;;;5029158;28;20249;-80
2021/12/21 16:55:59;;;;;;;10.63;7.53;;;;;;;;;;5026208;28;20229;-81
2021/12/21 16:58:27;;;;;;;9.33;6.93;;;;;;;;;;5018516;28;20195;-82
2021/12/21 17:01:02;;;;;;;7.50;6.57;;;;;;;;;;5013155;28;20210;-83
2021/12/21 17:03:30;;;;;;;10.10;6.87;;;;;;;;;;5013727;28;20240;-83
2021/12/21 17:05:57;;;;;;;7.00;6.30;;;;;;;;;;5002718;28;20203;-83
2021/12/21 17:08:29;;;;;;;9.50;7.60;;;;;;;;;;5005564;28;20219;-81
2021/12/21 17:10:58;;;;;;;10.90;7.83;;;;;;;;;;5015753;28;20199;-82
2021/12/21 17:13:25;;;;;;;9.97;8.13;;;;;;;;;;5007761;28;20218;-83
2021/12/21 17:16:09;;;;;;;11.97;8.13;;;;;;;;;;5012597;28;20202;-87
2021/12/21 17:21:28;;;;;;;10.80;9.23;;;;;;;;;;4967595;28;20250;-81
2021/12/21 17:24:04;;;;;;;11.83;8.30;;;;;;;;;;4972760;28;20315;-86
2021/12/21 17:26:38;;;;;;;12.07;7.90;;;;;;;;;;4975096;28;20210;-85
2021/12/21 17:29:06;;;;;;;10.60;8.87;;;;;;;;;;4979698;28;20220;-84
2021/12/21 17:31:33;;;;;;;10.70;7.33;;;;;;;;;;4991500;28;20212;-82
2021/12/21 17:34:05;;;;;;;9.10;7.00;;;;;;;;;;4988043;28;20258;-86
2021/12/21 17:36:33;;;;;;;7.00;6.30;;;;;;;;;;4979524;28;20212;-83
2021/12/21 17:39:03;;;;;;;7.97;6.57;;;;;;;;;;4976181;28;20207;-84
2021/12/21 17:41:31;;;;;;;10.30;6.70;;;;;;;;;;4977622;28;20247;-86
2021/12/21 17:44:15;;;;;;;8.37;6.90;;;;;;;;;;4976344;28;20235;-84
2021/12/21 17:46:42;;;;;;;9.57;7.33;;;;;;;;;;4969067;28;20212;-84
2021/12/21 17:49:24;;;;;;;8.33;7.30;;;;;;;;;;4972865;28;20331;-83
2021/12/21 17:51:52;;;;;;;10.63;7.93;;;;;;;;;;4968787;28;20279;-85
2021/12/21 17:54:21;;;;;;;10.97;7.90;;;;;;;;;;5025064;22;20258;-81
2021/12/21 17:56:48;;;;;;;10.43;8.50;;;;;;;;;;5029284;28;20205;-82
2021/12/21 17:59:16;;;;;;;12.60;10.37;;;;;;;;;;5035873;28;20205;-80
2021/12/21 18:01:49;;;;;;;13.03;10.77;;;;;;;;;;5033550;28;20202;-81
2021/12/21 18:04:18;;;;;;;13.80;9.60;;;;;;;;;;5018540;28;20242;-81
2021/12/21 18:06:45;;;;;;;15.33;12.30;;;;;;;;;;5011737;28;20205;-80
2021/12/21 18:09:12;;;;;;;15.93;11.00;;;;;;;;;;5013382;28;20233;-80
2021/12/21 18:11:42;;;;;;;8.90;8.00;;;;;;;;;;5009151;28;20211;-80
2021/12/21 18:14:11;;;;;;;12.13;9.97;;;;;;;;;;5011662;28;20223;-81
2021/12/21 18:16:38;;;;;;;12.17;9.83;;;;;;;;;;5016255;28;20260;-87
2021/12/21 18:19:14;;;;;;;11.43;8.93;;;;;;;;;;5014716;28;20661;-83
2021/12/21 18:27:30;;;;;;;13.80;8.43;;;;;;;;;;4992500;28;20207;-84